Time;durP1;ratioP1;P1;durP2;ratioP2;P2;SDS_P1;SDS_P2;PMS_P1;PMS_P2;Temp;Humidity;BMP_temperature;BMP_pressure;BME280_temperature;BME280_humidity;BME280_pressure;Samples;Min_cycle;Max_cycle;Signal;HPM_P1;HPM_P2
2021/09/19 00:01:42;;;;;;;14.10;9.65;;;;;;;16.03;86.83;100087.20;1749666;81;20884;-67
2021/09/19 00:04:08;;;;;;;15.72;8.88;;;;;;;16.04;86.87;100081.79;1750103;80;20852;-68
2021/09/19 00:06:36;;;;;;;11.12;7.30;;;;;;;16.03;86.90;100077.48;1749946;80;21148;-67
2021/09/19 00:09:04;;;;;;;15.18;8.85;;;;;;;16.05;86.90;100082.61;1749690;82;20916;-66
2021/09/19 00:11:31;;;;;;;12.00;7.72;;;;;;;16.05;86.92;100090.09;1749813;81;21415;-67
2021/09/19 00:14:00;;;;;;;10.32;7.45;;;;;;;16.06;86.85;100093.06;1749675;81;20978;-66
2021/09/19 00:16:28;;;;;;;9.38;6.00;;;;;;;16.06;86.83;100089.09;1749815;82;20970;-68
2021/09/19 00:18:57;;;;;;;10.55;5.70;;;;;;;16.06;86.83;100086.95;1749850;81;20860;-66
2021/09/19 00:21:23;;;;;;;9.55;6.35;;;;;;;16.06;86.86;100095.70;1749865;82;20856;-67
2021/09/19 00:23:52;;;;;;;6.67;5.25;;;;;;;16.06;86.86;100091.74;1749764;82;21322;-67
2021/09/19 00:26:20;;;;;;;10.75;6.65;;;;;;;16.07;87.16;100086.78;1749781;82;20927;-67
2021/09/19 00:28:47;;;;;;;6.22;5.12;;;;;;;16.08;86.90;100087.15;1749757;81;20912;-66
2021/09/19 00:31:14;;;;;;;6.83;5.33;;;;;;;16.10;86.81;100090.98;1746855;81;21128;-67
2021/09/19 00:33:40;;;;;;;6.10;4.75;;;;;;;16.11;86.81;100082.89;1744476;80;20892;-67
2021/09/19 00:36:07;;;;;;;5.80;5.20;;;;;;;16.11;86.74;100080.73;1744557;81;20924;-66
2021/09/19 00:38:36;;;;;;;6.60;5.05;;;;;;;16.14;86.81;100076.47;1744523;81;21011;-67
2021/09/19 00:41:02;;;;;;;7.20;5.33;;;;;;;16.14;86.81;100076.47;1744671;81;20909;-66
2021/09/19 00:45:16;;;;;;;6.37;5.37;;;;;;;16.20;86.63;100072.44;1798881;79;23110;-66
2021/09/19 00:47:43;;;;;;;7.37;5.42;;;;;;;16.15;86.58;100065.77;1758256;81;20917;-65
2021/09/19 00:50:12;;;;;;;4.80;4.35;;;;;;;16.18;86.57;100073.07;1758293;81;21537;-66
2021/09/19 00:52:41;;;;;;;7.37;4.95;;;;;;;16.20;86.72;100070.63;1752511;81;21334;-66
2021/09/19 00:55:09;;;;;;;6.37;4.70;;;;;;;16.20;86.72;100070.63;1749840;80;21049;-66
2021/09/19 00:57:46;;;;;;;5.67;4.87;;;;;;;16.21;86.54;100067.02;1716850;82;20927;-66
2021/09/19 01:00:19;;;;;;;7.17;4.90;;;;;;;16.22;86.53;100071.31;1716790;82;20931;-65
2021/09/19 01:02:47;;;;;;;7.25;4.92;;;;;;;16.23;86.57;100066.86;1707435;84;21147;-67
2021/09/19 01:05:18;;;;;;;6.85;4.60;;;;;;;16.24;86.59;100070.69;1709483;84;21405;-67
2021/09/19 01:07:47;;;;;;;6.22;4.55;;;;;;;16.26;86.67;100065.27;1709596;84;21020;-67
2021/09/19 01:10:19;;;;;;;5.72;5.12;;;;;;;16.26;86.72;100062.62;1709244;84;20967;-66
2021/09/19 01:12:47;;;;;;;6.85;5.60;;;;;;;16.26;86.83;100064.77;1709408;82;20904;-67
2021/09/19 01:15:16;;;;;;;8.60;5.15;;;;;;;16.27;86.96;100064.27;1709217;82;21096;-66
2021/09/19 01:17:45;;;;;;;5.78;5.17;;;;;;;16.27;87.17;100057.66;1709204;84;20971;-66
2021/09/19 01:20:15;;;;;;;10.40;6.12;;;;;;;16.25;87.30;100058.29;1709157;84;21002;-66
2021/09/19 01:22:46;;;;;;;10.15;5.70;;;;;;;16.25;87.46;100053.86;1709291;82;21496;-67
2021/09/19 01:25:15;;;;;;;7.17;5.50;;;;;;;16.24;87.60;100052.17;1709251;84;20904;-65
2021/09/19 01:27:45;;;;;;;8.58;6.08;;;;;;;16.24;87.74;100050.02;1709258;82;20948;-67
2021/09/19 01:30:13;;;;;;;6.80;6.05;;;;;;;16.23;87.87;100049.66;1709162;84;20949;-67
2021/09/19 01:32:40;;;;;;;8.53;5.65;;;;;;;16.21;87.97;100036.59;1709588;82;20927;-66
2021/09/19 01:35:09;;;;;;;6.25;5.53;;;;;;;16.21;88.07;100039.70;1709267;84;20995;-65
2021/09/19 01:37:37;;;;;;;10.82;6.42;;;;;;;16.21;88.12;100040.56;1709376;84;21498;-66
2021/09/19 01:40:08;;;;;;;9.08;5.65;;;;;;;16.21;88.23;100041.88;1709439;84;21549;-66
2021/09/19 01:42:36;;;;;;;8.80;6.62;;;;;;;16.21;88.31;100041.02;1709255;84;21456;-64
2021/09/19 01:45:07;;;;;;;11.75;7.60;;;;;;;16.22;88.37;100044.03;1703168;83;21006;-66
2021/09/19 01:47:35;;;;;;;10.00;6.95;;;;;;;16.21;88.44;100044.53;1711988;83;20948;-67
2021/09/19 01:50:05;;;;;;;11.18;6.50;;;;;;;16.21;88.53;100041.88;1702247;84;20995;-66
2021/09/19 01:52:34;;;;;;;9.70;7.40;;;;;;;16.23;88.63;100041.26;1686500;84;21446;-66
2021/09/19 01:55:01;;;;;;;7.08;6.25;;;;;;;16.24;88.70;100041.59;1711693;82;20935;-68
2021/09/19 01:57:28;;;;;;;10.23;6.47;;;;;;;16.25;88.75;100041.95;1701677;83;20916;-67
2021/09/19 01:59:56;;;;;;;12.30;6.97;;;;;;;16.26;88.75;100031.70;1711438;82;20967;-68
2021/09/19 02:02:23;;;;;;;11.35;7.20;;;;;;;16.25;88.89;100027.40;1701754;84;20979;-67
2021/09/19 02:04:53;;;;;;;12.95;6.30;;;;;;;16.26;88.89;100026.41;1711303;83;20907;-66
2021/09/19 02:07:19;;;;;;;9.35;6.70;;;;;;;16.27;88.91;100020.13;1701657;84;20930;-66
2021/09/19 02:09:48;;;;;;;11.00;6.85;;;;;;;16.30;88.78;100017.70;1711329;82;20939;-66
2021/09/19 02:12:15;;;;;;;8.48;6.53;;;;;;;16.30;88.96;100024.32;1701749;84;20991;-67
2021/09/19 02:14:43;;;;;;;10.08;7.10;;;;;;;16.31;89.03;100025.97;1711458;82;20904;-66
2021/09/19 02:17:11;;;;;;;8.68;6.83;;;;;;;16.33;89.05;100029.31;1701764;84;21135;-67
2021/09/19 02:19:40;;;;;;;12.33;8.75;;;;;;;16.33;89.05;100024.84;1711270;82;20940;-67
2021/09/19 02:22:11;;;;;;;9.50;6.83;;;;;;;16.33;89.20;100027.98;1701623;83;20905;-67
2021/09/19 02:24:39;;;;;;;13.38;7.45;;;;;;;16.33;89.20;100027.98;1711219;82;21410;-67
2021/09/19 02:27:08;;;;;;;8.10;6.80;;;;;;;16.35;89.04;100032.66;1701635;84;20996;-66
2021/09/19 02:29:37;;;;;;;9.00;6.60;;;;;;;16.37;89.01;100033.34;1686048;85;20991;-67
2021/09/19 02:32:05;;;;;;;8.78;5.62;;;;;;;16.36;88.96;100029.88;1711247;83;21007;-66
2021/09/19 02:34:33;;;;;;;10.63;6.30;;;;;;;16.39;88.91;100034.53;1701876;84;20956;-67
2021/09/19 02:37:01;;;;;;;8.85;5.58;;;;;;;16.41;88.76;100040.02;1711262;82;20928;-66
2021/09/19 02:39:28;;;;;;;14.70;6.70;;;;;;;16.42;88.83;100048.30;1701685;84;20944;-67
2021/09/19 02:41:56;;;;;;;6.70;5.97;;;;;;;16.44;88.76;100037.08;1711273;82;21131;-66
2021/09/19 02:44:24;;;;;;;6.30;5.60;;;;;;;16.45;88.70;100042.73;1699053;83;20972;-67
2021/09/19 02:46:51;;;;;;;8.25;5.83;;;;;;;16.46;88.49;100044.88;1696198;84;20959;-67
2021/09/19 02:49:20;;;;;;;7.45;5.92;;;;;;;16.47;88.54;100038.09;1696224;84;21023;-67
2021/09/19 02:51:48;;;;;;;6.30;5.47;;;;;;;16.48;88.49;100039.78;1696065;84;20897;-67
2021/09/19 02:54:16;;;;;;;7.35;5.72;;;;;;;16.49;88.34;100042.77;1696322;84;21906;-66
2021/09/19 02:56:44;;;;;;;7.17;5.22;;;;;;;16.50;88.26;100041.80;1696130;84;20904;-66
2021/09/19 02:59:13;;;;;;;9.48;5.95;;;;;;;16.51;88.17;100044.78;1695906;84;21051;-66
2021/09/19 03:01:41;;;;;;;8.18;6.42;;;;;;;16.52;88.10;100043.81;1696061;84;21518;-67
2021/09/19 03:04:08;;;;;;;9.38;5.53;;;;;;;16.53;88.01;100040.67;1696181;84;20873;-66
2021/09/19 03:06:35;;;;;;;7.17;5.97;;;;;;;16.53;87.86;100037.53;1696121;84;21148;-67
2021/09/19 03:09:06;;;;;;;6.25;5.72;;;;;;;16.53;87.81;100034.05;1696014;84;20971;-67
2021/09/19 03:11:34;;;;;;;9.33;6.22;;;;;;;16.53;87.70;100036.70;1696100;84;21010;-69
2021/09/19 03:14:02;;;;;;;8.23;6.17;;;;;;;16.53;87.68;100028.27;1696039;83;21425;-68
2021/09/19 03:16:31;;;;;;;8.78;6.37;;;;;;;16.55;87.60;100034.75;1696011;84;20948;-67
2021/09/19 03:18:59;;;;;;;7.40;5.70;;;;;;;16.55;87.65;100032.92;1696080;84;20904;-68
2021/09/19 03:21:26;;;;;;;7.78;5.72;;;;;;;16.55;87.49;100031.60;1695930;84;20893;-67
2021/09/19 03:23:53;;;;;;;10.95;6.42;;;;;;;16.56;87.41;100039.05;1696315;84;20952;-68
2021/09/19 03:26:21;;;;;;;6.10;5.58;;;;;;;16.56;87.33;100030.64;1696153;84;21413;-67
2021/09/19 03:28:48;;;;;;;7.28;6.58;;;;;;;16.56;87.28;100027.99;1696318;84;20968;-67
2021/09/19 03:31:15;;;;;;;9.40;6.45;;;;;;;16.56;87.28;100027.99;1696234;84;22113;-67
2021/09/19 03:33:44;;;;;;;7.35;5.97;;;;;;;16.56;87.16;100027.99;1696000;84;21597;-66
2021/09/19 03:36:10;;;;;;;12.07;6.30;;;;;;;16.56;86.71;100024.02;1696034;84;20991;-68
2021/09/19 03:38:39;;;;;;;8.48;6.35;;;;;;;16.56;87.01;100019.19;1696147;84;21437;-65
2021/09/19 03:41:06;;;;;;;9.40;6.75;;;;;;;16.56;86.96;100022.70;1696105;84;21061;-67
2021/09/19 03:43:34;;;;;;;8.90;6.62;;;;;;;16.55;86.94;100027.63;1696333;84;21111;-67
2021/09/19 03:46:01;;;;;;;10.68;8.25;;;;;;;16.56;86.97;100037.72;1695891;84;21406;-67
2021/09/19 03:48:28;;;;;;;13.00;10.95;;;;;;;16.57;87.03;100032.30;1696043;83;20896;-68
2021/09/19 03:50:54;;;;;;;19.37;14.75;;;;;;;16.60;87.10;100038.28;1696157;84;20983;-66
2021/09/19 03:53:21;;;;;;;11.35;7.65;;;;;;;16.60;87.10;100047.05;1696133;84;21418;-66
2021/09/19 03:55:49;;;;;;;11.80;7.65;;;;;;;16.62;87.10;100047.73;1696083;84;21138;-67
2021/09/19 03:58:17;;;;;;;7.22;6.50;;;;;;;16.63;87.12;100050.75;1696083;84;20920;-66
2021/09/19 04:00:44;;;;;;;9.30;5.75;;;;;;;16.64;87.23;100045.78;1696263;84;21047;-67
2021/09/19 04:03:11;;;;;;;8.58;7.78;;;;;;;16.65;87.31;100047.47;1696096;84;21059;-67
2021/09/19 04:05:38;;;;;;;8.25;6.97;;;;;;;16.67;87.41;100047.30;1696126;84;20913;-67
2021/09/19 04:08:05;;;;;;;7.62;6.83;;;;;;;16.68;87.51;100050.31;1696053;84;21147;-67
2021/09/19 04:10:32;;;;;;;8.30;6.42;;;;;;;16.68;87.60;100048.48;1696185;83;20912;-66
2021/09/19 04:13:00;;;;;;;13.25;8.30;;;;;;;16.70;87.69;100052.33;1696079;83;20975;-66
2021/09/19 04:15:27;;;;;;;9.73;6.47;;;;;;;16.69;87.73;100048.81;1696118;83;21003;-67
2021/09/19 04:17:56;;;;;;;11.03;7.47;;;;;;;16.70;87.71;100050.50;1696159;83;20885;-67
2021/09/19 04:20:23;;;;;;;8.90;7.25;;;;;;;16.71;87.74;100046.86;1696100;83;21144;-67
2021/09/19 04:22:51;;;;;;;16.48;8.00;;;;;;;16.71;87.86;100050.83;1695938;84;20905;-67
2021/09/19 04:25:20;;;;;;;10.58;8.00;;;;;;;16.73;87.97;100049.38;1696099;84;20920;-69
2021/09/19 04:27:49;;;;;;;9.10;7.97;;;;;;;16.75;87.96;100054.86;1695937;84;20924;-68
2021/09/19 04:30:16;;;;;;;10.30;9.20;;;;;;;16.76;87.87;100055.22;1695998;84;20991;-68
2021/09/19 04:32:42;;;;;;;8.60;7.75;;;;;;;16.77;87.80;100051.58;1696113;84;21512;-67
2021/09/19 04:35:10;;;;;;;9.88;8.90;;;;;;;16.79;87.67;100051.45;1695818;84;20912;-68
2021/09/19 04:37:38;;;;;;;13.03;9.65;;;;;;;16.81;87.38;100049.52;1696178;84;20931;-68
2021/09/19 04:40:08;;;;;;;12.13;9.03;;;;;;;16.83;87.46;100048.03;1696423;84;20952;-67
2021/09/19 04:42:35;;;;;;;12.70;9.78;;;;;;;16.85;87.40;100045.60;1696475;84;21553;-66
2021/09/19 04:45:04;;;;;;;10.75;9.65;;;;;;;16.90;87.33;100050.45;1697876;83;21382;-64
2021/09/19 04:47:31;;;;;;;16.75;9.48;;;;;;;16.95;87.32;100044.22;1697283;83;20956;-67
2021/09/19 04:49:58;;;;;;;14.03;10.53;;;;;;;17.03;87.34;100047.44;1696107;84;21066;-67
2021/09/19 04:52:25;;;;;;;11.43;9.35;;;;;;;17.13;87.35;100051.70;1695978;84;20926;-68
2021/09/19 04:54:52;;;;;;;14.65;10.48;;;;;;;17.24;87.07;100056.47;1696011;84;20973;-67
2021/09/19 04:57:21;;;;;;;13.83;10.18;;;;;;;17.34;86.75;100062.05;1696055;83;20901;-67
2021/09/19 04:59:47;;;;;;;18.30;11.25;;;;;;;17.44;86.33;100062.48;1696251;84;21423;-67
2021/09/19 05:02:14;;;;;;;13.65;11.55;;;;;;;17.50;86.11;100061.38;1695964;84;20916;-66
2021/09/19 05:04:41;;;;;;;17.05;11.63;;;;;;;17.57;85.94;100057.64;1696045;83;20921;-67
2021/09/19 05:07:10;;;;;;;22.13;12.63;;;;;;;17.65;85.76;100057.69;1696244;84;20932;-68
2021/09/19 05:09:37;;;;;;;20.97;14.90;;;;;;;17.72;85.43;100057.92;1696066;84;21144;-68
2021/09/19 05:12:06;;;;;;;24.65;18.37;;;;;;;17.75;84.61;100055.81;1695935;84;20980;-68
2021/09/19 05:14:34;;;;;;;23.07;16.75;;;;;;;17.75;84.61;100055.81;1696055;84;21591;-66
2021/09/19 05:17:03;;;;;;;32.08;20.17;;;;;;;17.77;84.42;100051.69;1696090;83;20948;-68
2021/09/19 05:19:31;;;;;;;23.77;18.50;;;;;;;17.75;84.25;100053.16;1695957;83;20900;-67
2021/09/19 05:22:00;;;;;;;22.52;18.07;;;;;;;17.75;84.17;100058.96;1696006;84;21367;-68
2021/09/19 05:24:28;;;;;;;27.52;18.73;;;;;;;17.75;84.17;100052.33;1696074;84;21469;-67
2021/09/19 05:26:57;;;;;;;27.52;17.85;;;;;;;17.76;84.19;100061.94;1696101;83;20929;-67
2021/09/19 05:29:25;;;;;;;30.15;19.57;;;;;;;17.76;84.22;100073.41;1695864;83;21043;-67
2021/09/19 05:31:51;;;;;;;30.92;23.05;;;;;;;17.76;84.20;100081.83;1696429;84;21354;-68
2021/09/19 05:34:18;;;;;;;27.42;21.90;;;;;;;17.77;84.25;100083.52;1696175;84;21107;-69
2021/09/19 05:36:45;;;;;;;32.90;23.27;;;;;;;17.77;84.26;100077.70;1696404;83;20960;-67
2021/09/19 05:39:13;;;;;;;37.20;25.43;;;;;;;17.79;84.35;100080.22;1696147;84;20987;-68
2021/09/19 05:41:43;;;;;;;38.67;29.02;;;;;;;17.81;84.48;100081.76;1696172;84;20905;-67
2021/09/19 05:44:10;;;;;;;40.58;27.77;;;;;;;17.87;84.43;100084.28;1696149;84;20892;-68
2021/09/19 05:46:37;;;;;;;44.98;34.18;;;;;;;17.93;84.29;100082.85;1701410;83;22159;-67
2021/09/19 05:49:04;;;;;;;50.60;34.90;;;;;;;17.93;84.29;100082.85;1711229;83;21042;-69
2021/09/19 05:51:31;;;;;;;47.53;34.13;;;;;;;17.93;84.12;100081.02;1701514;83;20924;-68
2021/09/19 05:53:58;;;;;;;53.52;37.73;;;;;;;17.93;83.99;100085.50;1711174;82;20992;-69
2021/09/19 05:56:25;;;;;;;46.70;32.98;;;;;;;17.91;83.80;100086.97;1701990;84;21023;-69
2021/09/19 05:58:54;;;;;;;46.53;35.15;;;;;;;17.92;83.77;100080.70;1711244;82;21505;-68
2021/09/19 06:01:22;;;;;;;41.63;31.55;;;;;;;17.98;83.93;100088.52;1711339;83;20935;-67
2021/09/19 06:03:48;;;;;;;40.73;30.10;;;;;;;18.05;83.82;100094.05;1701546;84;21619;-68
2021/09/19 06:06:15;;;;;;;34.30;28.65;;;;;;;18.13;83.88;100093.63;1685954;85;21007;-67
2021/09/19 06:08:43;;;;;;;37.75;28.57;;;;;;;18.21;83.72;100088.89;1711210;82;21418;-69
2021/09/19 06:11:11;;;;;;;35.58;28.20;;;;;;;18.30;83.35;100077.84;1701500;84;21168;-67
2021/09/19 06:13:39;;;;;;;34.63;26.90;;;;;;;18.40;83.01;100078.55;1711180;82;20856;-67
2021/09/19 06:16:06;;;;;;;38.23;27.95;;;;;;;18.50;82.43;100071.80;1711238;83;20983;-68
2021/09/19 06:18:34;;;;;;;33.18;25.75;;;;;;;18.61;82.02;100069.73;1711261;82;21119;-68
2021/09/19 06:21:03;;;;;;;38.48;26.45;;;;;;;18.77;81.81;100071.66;1701699;84;20956;-69
2021/09/19 06:23:30;;;;;;;38.53;25.88;;;;;;;18.95;81.29;100070.25;1711217;82;21126;-66
2021/09/19 06:25:58;;;;;;;28.05;23.25;;;;;;;19.16;80.74;100077.78;1711271;83;20940;-67
2021/09/19 06:28:24;;;;;;;30.72;23.00;;;;;;;19.44;80.01;100073.05;1701675;84;21003;-66
2021/09/19 06:30:51;;;;;;;31.77;25.27;;;;;;;19.66;78.35;100080.08;1711418;83;21030;-67
2021/09/19 06:33:19;;;;;;;37.10;28.02;;;;;;;19.81;76.88;100083.79;1682689;84;20900;-68
2021/09/19 06:35:48;;;;;;;32.17;26.20;;;;;;;19.87;75.30;100088.42;1682737;84;22026;-67
2021/09/19 06:38:14;;;;;;;34.83;28.07;;;;;;;19.87;74.44;100100.41;1701563;84;20897;-68
2021/09/19 06:40:43;;;;;;;36.08;28.20;;;;;;;19.84;73.94;100095.93;1711220;83;20936;-67
2021/09/19 06:43:10;;;;;;;35.03;30.27;;;;;;;19.77;73.80;100088.28;1683033;85;21373;-67
2021/09/19 06:45:37;;;;;;;39.00;32.83;;;;;;;19.71;73.84;100092.41;1701714;83;21480;-66
2021/09/19 06:48:05;;;;;;;40.48;32.28;;;;;;;19.63;73.98;100095.88;1711225;83;21564;-65
2021/09/19 06:50:32;;;;;;;36.25;32.17;;;;;;;19.57;74.13;100088.55;1701686;84;20916;-67
2021/09/19 06:53:01;;;;;;;38.25;31.60;;;;;;;19.53;74.37;100091.70;1711359;83;20907;-67
2021/09/19 06:55:28;;;;;;;35.85;31.62;;;;;;;19.51;74.27;100094.52;1701629;84;21003;-67
2021/09/19 06:57:57;;;;;;;36.80;31.97;;;;;;;19.50;74.27;100098.18;1711296;82;20964;-67
2021/09/19 07:00:25;;;;;;;39.03;32.50;;;;;;;19.52;74.32;100096.66;1700956;84;22088;-65
2021/09/19 07:02:52;;;;;;;34.60;31.10;;;;;;;19.55;74.35;100096.36;1711202;82;20924;-68
2021/09/19 07:05:20;;;;;;;37.75;33.65;;;;;;;19.58;74.27;100099.50;1701570;83;21478;-67
2021/09/19 07:07:46;;;;;;;39.63;34.48;;;;;;;19.60;74.34;100092.70;1711328;82;21397;-66
2021/09/19 07:10:14;;;;;;;39.60;33.90;;;;;;;19.59;74.17;100093.20;1701510;83;21053;-65
2021/09/19 07:12:41;;;;;;;34.45;30.72;;;;;;;19.59;73.94;100099.03;1711141;83;21803;-67
2021/09/19 07:15:10;;;;;;;36.23;31.05;;;;;;;19.59;74.16;100091.87;1701460;83;20920;-68
2021/09/19 07:17:37;;;;;;;37.42;32.45;;;;;;;19.63;74.23;100090.56;1711357;82;20983;-68
2021/09/19 07:20:06;;;;;;;37.78;33.65;;;;;;;19.68;74.06;100092.73;1701811;84;21495;-67
2021/09/19 07:22:34;;;;;;;39.90;35.48;;;;;;;19.77;73.68;100106.91;1711221;82;20982;-69
2021/09/19 07:25:03;;;;;;;35.00;30.82;;;;;;;19.85;73.47;100113.55;1701545;84;22304;-69
2021/09/19 07:27:31;;;;;;;30.88;27.40;;;;;;;19.93;73.12;100116.73;1711445;82;20888;-69
2021/09/19 07:29:58;;;;;;;31.25;25.37;;;;;;;19.99;72.98;100122.22;1701528;83;21449;-69
2021/09/19 07:32:25;;;;;;;29.37;26.37;;;;;;;20.06;72.62;100116.56;1711247;82;21108;-69
2021/09/19 07:34:52;;;;;;;25.27;22.77;;;;;;;20.07;72.41;100106.73;1701945;84;20945;-69
2021/09/19 07:37:19;;;;;;;27.15;24.25;;;;;;;20.07;72.04;100092.92;1711231;83;21525;-69
2021/09/19 07:39:47;;;;;;;26.95;24.02;;;;;;;20.04;71.91;100105.25;1682569;85;21492;-69
2021/09/19 07:42:15;;;;;;;28.40;25.35;;;;;;;19.99;71.92;100110.75;1701518;83;21047;-68
2021/09/19 07:44:42;;;;;;;28.85;25.92;;;;;;;19.95;72.15;100121.39;1711486;82;21014;-66
2021/09/19 07:47:10;;;;;;;33.33;29.32;;;;;;;19.88;72.46;100126.03;1715134;83;20958;-69
2021/09/19 07:49:39;;;;;;;32.63;29.05;;;;;;;19.84;72.79;100130.52;1721733;82;20907;-69
2021/09/19 07:52:08;;;;;;;35.38;29.48;;;;;;;19.79;73.17;100123.54;1692695;83;21571;-67
2021/09/19 07:54:36;;;;;;;34.60;30.80;;;;;;;19.73;73.42;100114.87;1691616;83;21006;-67
2021/09/19 07:57:03;;;;;;;32.93;29.50;;;;;;;19.70;73.49;100114.70;1721585;82;20876;-67
2021/09/19 07:59:30;;;;;;;32.13;28.30;;;;;;;19.72;73.59;100115.86;1693123;83;20944;-67
2021/09/19 08:01:57;;;;;;;30.25;26.73;;;;;;;19.78;73.93;100119.20;1691546;83;20996;-68
2021/09/19 08:04:23;;;;;;;29.90;26.75;;;;;;;19.86;73.89;100121.38;1722363;82;20935;-70
2021/09/19 08:06:50;;;;;;;29.32;26.42;;;;;;;19.97;73.81;100118.89;1693201;84;20919;-69
2021/09/19 08:09:19;;;;;;;30.10;25.20;;;;;;;20.11;73.34;100126.71;1691985;84;20912;-66
2021/09/19 08:11:46;;;;;;;29.02;26.12;;;;;;;20.27;72.85;100133.86;1723436;83;21027;-65
2021/09/19 08:14:13;;;;;;;28.17;25.48;;;;;;;20.43;72.32;100128.55;1693771;83;21160;-69
2021/09/19 08:16:40;;;;;;;28.05;25.20;;;;;;;20.59;71.48;100129.05;1691398;83;20875;-70
2021/09/19 08:19:08;;;;;;;28.98;26.05;;;;;;;20.77;70.71;100129.34;1721675;82;20951;-70
2021/09/19 08:21:37;;;;;;;29.35;26.37;;;;;;;20.94;70.01;100129.61;1692909;84;21487;-70
2021/09/19 08:24:06;;;;;;;26.73;24.10;;;;;;;21.14;69.39;100129.21;1691659;83;21041;-70
2021/09/19 08:26:34;;;;;;;31.68;28.42;;;;;;;21.33;68.88;100126.13;1721545;82;21148;-70
2021/09/19 08:29:02;;;;;;;28.70;26.00;;;;;;;21.62;68.47;100122.83;1692671;83;21466;-68
2021/09/19 08:31:29;;;;;;;26.87;24.37;;;;;;;21.93;67.23;100117.96;1691159;83;20938;-70
2021/09/19 08:33:56;;;;;;;26.42;23.95;;;;;;;22.21;66.53;100122.73;1721929;83;20939;-69
2021/09/19 08:36:24;;;;;;;24.50;22.30;;;;;;;22.74;66.02;100122.25;1692823;83;20923;-70
2021/09/19 08:38:52;;;;;;;24.32;22.10;;;;;;;23.09;64.28;100118.04;1721808;83;21549;-70
2021/09/19 08:41:19;;;;;;;24.18;22.00;;;;;;;23.74;63.16;100118.98;1692669;84;20939;-68
2021/09/19 08:43:47;;;;;;;25.32;23.22;;;;;;;24.23;60.92;100112.05;1691133;83;20943;-67
2021/09/19 08:46:16;;;;;;;24.85;22.65;;;;;;;24.53;59.02;100114.06;1713864;83;21046;-69
2021/09/19 08:48:43;;;;;;;24.00;21.80;;;;;;;24.96;57.96;100111.22;1696249;84;20920;-68
2021/09/19 08:51:10;;;;;;;21.80;20.00;;;;;;;25.38;57.08;100104.52;1695838;83;21184;-68
2021/09/19 08:53:36;;;;;;;20.08;18.12;;;;;;;25.79;56.07;100104.91;1696127;84;21379;-68
2021/09/19 08:56:04;;;;;;;17.30;15.90;;;;;;;26.32;54.71;100102.27;1695913;84;20916;-68
2021/09/19 08:58:31;;;;;;;13.13;12.07;;;;;;;26.79;53.09;100100.88;1695927;83;20909;-68
2021/09/19 09:01:00;;;;;;;13.85;12.85;;;;;;;27.23;50.95;100098.78;1696106;83;21374;-68
2021/09/19 09:03:29;;;;;;;12.85;11.85;;;;;;;27.37;50.15;100099.56;1696066;84;21149;-67
2021/09/19 09:06:00;;;;;;;12.47;11.38;;;;;;;27.38;49.47;100101.73;1695978;83;21466;-69
2021/09/19 09:08:28;;;;;;;11.85;10.85;;;;;;;27.27;48.73;100099.19;1696022;84;21469;-69
2021/09/19 09:10:56;;;;;;;8.43;7.83;;;;;;;27.12;48.82;100098.60;1696102;84;21049;-69
2021/09/19 09:13:30;;;;;;;8.88;8.05;;;;;;;27.29;48.98;100090.38;1696065;84;21031;-70
2021/09/19 09:16:07;;;;;;;7.80;7.10;;;;;;;27.41;48.07;100091.37;1696299;83;22025;-68
2021/09/19 09:18:50;;;;;;;7.47;6.87;;;;;;;27.72;47.56;100091.58;1696083;84;21508;-69
2021/09/19 09:21:28;;;;;;;7.97;7.35;;;;;;;27.84;46.67;100094.73;1696013;83;21498;-67
2021/09/19 09:24:00;;;;;;;8.03;7.25;;;;;;;27.80;45.72;100097.53;1695371;84;20979;-69
2021/09/19 09:26:37;;;;;;;8.18;7.58;;;;;;;27.58;45.64;100097.58;1696120;84;20999;-69
2021/09/19 09:29:12;;;;;;;8.73;8.03;;;;;;;27.25;46.21;100102.09;1696160;83;21828;-68
2021/09/19 09:31:45;;;;;;;9.00;8.10;;;;;;;26.95;46.93;100107.16;1695977;83;20983;-67
2021/09/19 09:34:20;;;;;;;6.53;6.00;;;;;;;27.05;47.23;100106.70;1696329;83;20924;-69
2021/09/19 09:36:58;;;;;;;5.90;5.40;;;;;;;27.27;47.16;100104.58;1696051;84;20955;-67
2021/09/19 09:39:40;;;;;;;7.55;6.95;;;;;;;27.58;46.39;100103.78;1696222;84;20980;-66
2021/09/19 09:42:11;;;;;;;8.40;7.80;;;;;;;27.72;45.34;100099.13;1696108;84;21268;-68
2021/09/19 09:44:50;;;;;;;11.45;10.45;;;;;;;27.76;45.35;100104.92;1696078;83;21426;-67
2021/09/19 09:47:25;;;;;;;12.43;11.25;;;;;;;27.66;45.40;100104.06;1699749;83;20967;-68
2021/09/19 09:49:59;;;;;;;12.60;11.50;;;;;;;27.58;45.78;100105.13;1711339;82;20955;-67
2021/09/19 09:52:29;;;;;;;17.12;15.50;;;;;;;27.45;46.01;100107.38;1701077;84;20995;-67
2021/09/19 09:55:08;;;;;;;20.62;18.73;;;;;;;27.23;46.24;100101.47;1711249;83;21154;-67
2021/09/19 09:57:42;;;;;;;23.50;21.25;;;;;;;26.97;46.37;100116.34;1701650;84;20999;-68
2021/09/19 10:00:19;;;;;;;26.55;23.83;;;;;;;26.64;46.93;100115.41;1710821;82;20964;-69
2021/09/19 10:02:49;;;;;;;26.20;23.42;;;;;;;26.71;47.71;100113.23;1701634;84;21077;-68
2021/09/19 10:05:17;;;;;;;22.60;20.30;;;;;;;26.95;48.10;100121.14;1711243;82;20919;-68
2021/09/19 10:07:44;;;;;;;20.68;18.37;;;;;;;27.35;47.14;100111.07;1701518;84;21130;-68
2021/09/19 10:10:15;;;;;;;16.82;15.23;;;;;;;27.82;46.13;100104.87;1711218;82;20916;-68
2021/09/19 10:12:42;;;;;;;14.38;13.08;;;;;;;28.28;44.81;100109.11;1701816;84;20944;-69
2021/09/19 10:15:10;;;;;;;13.62;12.40;;;;;;;28.72;43.73;100109.12;1711427;83;20943;-68
2021/09/19 10:17:38;;;;;;;11.45;10.50;;;;;;;29.06;42.88;100110.91;1701561;84;20944;-67
2021/09/19 10:20:13;;;;;;;11.10;10.10;;;;;;;29.38;41.71;100110.77;1711154;82;21149;-70
2021/09/19 10:23:03;;;;;;;11.38;10.28;;;;;;;29.65;40.95;100112.03;1680188;84;21425;-70
2021/09/19 10:25:54;;;;;;;11.08;10.10;;;;;;;30.02;40.76;100115.98;1711208;82;20931;-67
2021/09/19 10:28:34;;;;;;;11.22;10.25;;;;;;;30.26;39.81;100116.84;1701738;84;21398;-69
2021/09/19 10:31:17;;;;;;;10.78;9.93;;;;;;;30.40;38.65;100122.87;1711219;82;20925;-68
2021/09/19 10:33:53;;;;;;;10.08;9.18;;;;;;;30.60;38.04;100118.98;1701832;83;21489;-67
2021/09/19 10:36:31;;;;;;;11.93;10.93;;;;;;;30.80;37.45;100124.03;1711146;83;20975;-68
2021/09/19 10:39:23;;;;;;;10.95;9.95;;;;;;;30.84;37.16;100119.25;1701994;84;21457;-68
2021/09/19 10:42:25;;;;;;;7.58;6.92;;;;;;;30.97;36.92;100114.95;1711216;82;20959;-68
2021/09/19 10:44:55;;;;;;;8.50;7.83;;;;;;;31.16;35.36;100116.13;1701689;83;21473;-67
2021/09/19 10:47:32;;;;;;;9.98;9.05;;;;;;;31.32;34.13;100109.94;1693854;84;22232;-67
2021/09/19 10:50:25;;;;;;;11.85;10.72;;;;;;;31.50;34.41;100109.48;1701912;84;20928;-68
2021/09/19 10:53:16;;;;;;;13.10;11.88;;;;;;;31.56;34.27;100106.62;1721806;83;20864;-68
2021/09/19 10:56:03;;;;;;;12.18;11.03;;;;;;;31.64;33.70;100107.29;1692956;83;21361;-67
2021/09/19 10:58:36;;;;;;;13.50;12.40;;;;;;;31.59;33.18;100106.67;1693013;83;21393;-68
2021/09/19 11:01:25;;;;;;;13.20;11.93;;;;;;;31.61;33.49;100103.19;1695676;83;21163;-68
2021/09/19 11:04:08;;;;;;;15.40;13.93;;;;;;;31.65;33.54;100101.63;1692874;83;20942;-72
2021/09/19 11:06:42;;;;;;;14.58;13.03;;;;;;;31.43;34.38;100108.28;1721675;82;20954;-70
2021/09/19 11:09:35;;;;;;;15.88;13.75;;;;;;;31.17;34.54;100110.48;1692960;84;20991;-68
2021/09/19 11:12:12;;;;;;;14.60;13.40;;;;;;;30.95;35.23;100107.59;1668184;84;21002;-69
2021/09/19 11:15:02;;;;;;;14.07;12.80;;;;;;;30.81;35.41;100106.70;1721155;82;20891;-69
2021/09/19 11:17:31;;;;;;;13.20;12.05;;;;;;;30.68;35.71;100109.98;1692781;83;20954;-68
2021/09/19 11:20:18;;;;;;;12.30;11.22;;;;;;;30.57;35.48;100106.22;1691673;83;21109;-69
2021/09/19 11:22:50;;;;;;;11.38;10.40;;;;;;;30.40;35.86;100097.16;1721696;82;20919;-71
2021/09/19 11:25:19;;;;;;;11.70;10.65;;;;;;;30.23;35.44;100098.35;1693072;84;20879;-69
2021/09/19 11:27:49;;;;;;;11.95;10.82;;;;;;;30.07;35.30;100093.64;1691312;84;20927;-70
2021/09/19 11:30:21;;;;;;;11.63;10.40;;;;;;;29.81;36.08;100093.53;1721505;82;20958;-69